• Join FlightAware (Why Join?)
  • Login
  • US Flag 
09:54PM EDT


 

Airport Tracker/Info


-or-


 

Live Flight TrackerFlight Track Log ✈ LPE2510 ✈ 02-May-2012 ✈ SPIM / LIM - KMIA

Flight Track Log - Related Links

Times and Time Zones

All times are in EDT time to prevent confusion due to time zone crossing. See the LPE2510 flight status page for this flight to view local times or setup timezone preferences in your user account.

Time Position Orientation Groundspeed Altitude Reporting Facility
EDT Latitude Longitude Course Direction KTS MPH feet Rate Location/Type
06:54PM -11.0702 -77.2202 354° North  Level FlightAware Approximate
06:55PM -10.9474 -77.2340 354° North  Level FlightAware Approximate
06:56PM -10.8246 -77.2478 354° North  Level FlightAware Approximate
06:57PM -10.7018 -77.2615 354° North  Level FlightAware Approximate
06:58PM -10.5789 -77.2753 354° North  Level FlightAware Approximate
06:59PM -10.4561 -77.2890 354° North  Level FlightAware Approximate
07:00PM -10.3333 -77.3027 354° North  Level FlightAware Approximate
07:01PM -10.2105 -77.3164 355° North  Level FlightAware Approximate
07:02PM -10.0875 -77.3274 354° North  Level FlightAware Approximate
07:03PM -9.9647 -77.3412 354° North  Level FlightAware Approximate
07:04PM -9.8419 -77.3549 354° North  Level FlightAware Approximate
07:05PM -9.7191 -77.3687 354° North  Level FlightAware Approximate
07:06PM -9.5963 -77.3825 354° North  Level FlightAware Approximate
07:07PM -9.4734 -77.3962 354° North  Level FlightAware Approximate
07:08PM -9.3506 -77.4099 354° North  Level FlightAware Approximate
07:09PM -9.2278 -77.4237 354° North  Level FlightAware Approximate
07:10PM -9.1006 -77.4379 354° North  Level FlightAware Approximate
07:11PM -8.9733 -77.4522 354° North  Level FlightAware Approximate
07:12PM -8.8461 -77.4664 354° North  Level FlightAware Approximate
07:13PM -8.7189 -77.4806 354° North  Level FlightAware Approximate
07:14PM -8.5916 -77.4948 354° North  Level FlightAware Approximate
07:15PM -7.7576 -77.5877 354° North  Level FlightAware Approximate
07:16PM -6.9236 -77.6803 354° North  Level FlightAware Approximate
07:17PM -6.0895 -77.7725 354° North  Level FlightAware Approximate
07:18PM -5.2662 -77.8632 354° North  Level FlightAware Approximate
07:19PM -4.4455 -77.9534 354° North  Level FlightAware Approximate
07:20PM -3.6248 -78.0434 354° North  Level FlightAware Approximate
07:21PM -2.8108 -78.1325 354° North  Level FlightAware Approximate
07:22PM -1.9967 -78.2215 354° North  Level FlightAware Approximate
07:23PM -1.1827 -78.3104 354° North  Level FlightAware Approximate
07:24PM -0.3686 -78.3992 354° North  Level FlightAware Approximate
07:25PM 0.4454 -78.4880 354° North  Level FlightAware Approximate
07:26PM 1.2594 -78.5769 354° North  Level FlightAware Approximate
07:27PM 2.0737 -78.6634 354° North  Level FlightAware Approximate
07:28PM 2.8878 -78.7519 354° North  Level FlightAware Approximate
07:29PM 3.7019 -78.8405 354° North  Level FlightAware Approximate
07:30PM 4.5160 -78.9293 354° North  Level FlightAware Approximate
07:31PM 5.3300 -79.0183 354° North  Level FlightAware Approximate
07:32PM 6.1441 -79.1075 353° North  Level FlightAware Approximate
07:33PM 6.9576 -79.2014 354° North  Level FlightAware Approximate
07:34PM 7.7717 -79.2904 354° North  Level FlightAware Approximate
07:35PM 8.5858 -79.3797 354° North  Level FlightAware Approximate
07:36PM 9.3998 -79.4694 354° North  Level FlightAware Approximate